createdAt,value
2023-06-29T00:00:31.901Z,2.06
2023-06-29T00:01:32.014Z,2.00
2023-06-29T00:02:32.028Z,1.90
2023-06-29T00:03:32.100Z,1.96
2023-06-29T00:04:32.119Z,2.01
2023-06-29T00:05:32.186Z,1.94
2023-06-29T00:06:32.240Z,2.03
2023-06-29T00:07:32.337Z,1.97
2023-06-29T00:08:32.347Z,1.92
2023-06-29T00:09:32.423Z,1.99
2023-06-29T00:10:32.458Z,1.98
2023-06-29T00:11:32.535Z,2.07
2023-06-29T00:12:32.580Z,1.86
2023-06-29T00:13:32.640Z,1.93
2023-06-29T00:14:32.693Z,1.97
2023-06-29T00:15:32.751Z,1.92
2023-06-29T00:16:32.894Z,1.89
2023-06-29T00:17:32.918Z,1.93
2023-06-29T00:18:32.928Z,1.84
2023-06-29T00:19:32.999Z,1.99
2023-06-29T00:20:33.139Z,1.99
2023-06-29T00:21:33.112Z,1.94
2023-06-29T00:22:33.155Z,1.95
2023-06-29T00:23:33.310Z,1.86
2023-06-29T00:24:33.289Z,1.90
2023-06-29T00:25:33.371Z,1.85
2023-06-29T00:26:33.574Z,1.98
2023-06-29T00:27:33.505Z,1.95
2023-06-29T00:28:33.560Z,1.98
2023-06-29T00:29:34.334Z,1.94
2023-06-29T00:30:33.688Z,1.99
2023-06-29T00:31:33.944Z,1.90
2023-06-29T00:32:34.424Z,2.00
2023-06-29T00:33:33.872Z,1.90
2023-06-29T00:34:33.950Z,1.94
2023-06-29T00:35:34.018Z,1.87
2023-06-29T00:36:34.086Z,1.87
2023-06-29T00:37:34.140Z,1.87
2023-06-29T00:38:34.209Z,1.93
2023-06-29T00:39:34.277Z,1.81
2023-06-29T00:40:34.403Z,1.88
2023-06-29T00:41:34.407Z,1.88
2023-06-29T00:42:34.495Z,1.91
2023-06-29T00:43:34.549Z,1.85
2023-06-29T00:44:34.601Z,1.87
2023-06-29T00:45:34.671Z,1.87
2023-06-29T00:46:34.773Z,1.87
2023-06-29T00:47:34.866Z,1.75
2023-06-29T00:48:34.891Z,1.90
2023-06-29T00:49:34.953Z,1.85
2023-06-29T00:50:35.021Z,1.91
2023-06-29T00:51:35.091Z,1.87
2023-06-29T00:52:35.161Z,1.88
2023-06-29T00:53:35.382Z,1.84
2023-06-29T00:54:35.316Z,1.93
2023-06-29T00:55:35.368Z,1.82
2023-06-29T00:56:38.353Z,1.85
2023-06-29T00:57:35.497Z,1.93
2023-06-29T00:58:35.553Z,1.87
2023-06-29T00:59:35.598Z,1.93
2023-06-29T01:00:35.677Z,1.79
2023-06-29T01:01:35.703Z,1.88
2023-06-29T01:02:35.856Z,1.90
2023-06-29T01:03:36.571Z,1.84
2023-06-29T01:04:35.873Z,1.82
2023-06-29T01:05:35.936Z,1.87
2023-06-29T01:06:36.058Z,1.94
2023-06-29T01:07:36.043Z,1.90
2023-06-29T01:08:36.086Z,1.82
2023-06-29T01:09:36.136Z,1.83
2023-06-29T01:10:36.187Z,1.84
2023-06-29T01:11:36.255Z,1.92
2023-06-29T01:12:36.304Z,1.90
2023-06-29T01:13:36.349Z,1.75
2023-06-29T01:14:36.410Z,1.91
2023-06-29T01:15:36.464Z,1.84
2023-06-29T01:16:37.470Z,1.80
2023-06-29T01:17:36.607Z,1.84
2023-06-29T01:18:37.362Z,1.85
2023-06-29T01:19:36.680Z,1.85
2023-06-29T01:20:36.808Z,1.82
2023-06-29T01:21:36.790Z,1.74
2023-06-29T01:22:37.378Z,1.88
2023-06-29T01:23:36.922Z,1.86
2023-06-29T01:24:36.969Z,1.80
2023-06-29T01:25:37.027Z,1.81
2023-06-29T01:26:37.071Z,1.79
2023-06-29T01:27:37.139Z,1.79
2023-06-29T01:28:37.860Z,1.81
2023-06-29T01:29:37.261Z,1.86
2023-06-29T01:30:37.289Z,1.74
2023-06-29T01:31:37.383Z,1.83
2023-06-29T01:32:37.471Z,1.85
2023-06-29T01:33:37.467Z,1.83
2023-06-29T01:34:37.518Z,1.79
2023-06-29T01:35:37.576Z,1.72
2023-06-29T01:36:37.631Z,1.87
2023-06-29T01:37:37.696Z,1.78
2023-06-29T01:38:37.758Z,1.84
2023-06-29T01:39:37.800Z,1.83
2023-06-29T01:40:37.850Z,1.84
2023-06-29T01:41:37.918Z,1.82
2023-06-29T01:42:37.968Z,1.86
2023-06-29T01:43:38.957Z,1.80
2023-06-29T01:44:38.084Z,1.74
2023-06-29T01:45:38.128Z,1.81
2023-06-29T01:46:38.244Z,1.87
2023-06-29T01:47:38.282Z,1.80
2023-06-29T01:48:38.282Z,1.79
2023-06-29T01:49:38.342Z,1.85
2023-06-29T01:50:38.396Z,1.73
2023-06-29T01:51:39.412Z,1.77
2023-06-29T01:52:38.882Z,1.73
2023-06-29T01:53:38.564Z,1.78
2023-06-29T01:54:39.365Z,1.81
2023-06-29T01:55:38.667Z,1.81
2023-06-29T01:56:38.745Z,1.78
2023-06-29T01:57:38.787Z,1.82
2023-06-29T01:58:38.833Z,1.68
2023-06-29T01:59:38.904Z,1.71
2023-06-29T02:00:38.959Z,1.83
2023-06-29T02:01:39.022Z,1.84
2023-06-29T02:02:39.136Z,1.78
2023-06-29T02:03:39.275Z,1.83
2023-06-29T02:04:39.189Z,1.77
2023-06-29T02:05:39.254Z,1.81
2023-06-29T02:06:39.377Z,1.80
2023-06-29T02:07:39.369Z,1.70
2023-06-29T02:08:39.427Z,1.80
2023-06-29T02:09:39.480Z,1.72
2023-06-29T02:10:39.561Z,1.75
2023-06-29T02:11:39.690Z,1.73
2023-06-29T02:12:39.746Z,1.80
2023-06-29T02:13:39.874Z,1.74
2023-06-29T02:14:39.913Z,1.81
2023-06-29T02:15:40.029Z,1.70
2023-06-29T02:16:40.136Z,1.74
2023-06-29T02:17:40.416Z,1.77
2023-06-29T02:18:40.325Z,1.77
2023-06-29T02:19:40.362Z,1.78
2023-06-29T02:20:40.537Z,1.78
2023-06-29T02:21:40.529Z,1.76
2023-06-29T02:22:40.633Z,1.73
2023-06-29T02:23:40.719Z,1.80
2023-06-29T02:24:40.806Z,1.78
2023-06-29T02:25:40.962Z,1.75
2023-06-29T02:26:40.991Z,1.77
2023-06-29T02:27:41.102Z,1.72
2023-06-29T02:28:41.201Z,1.76
2023-06-29T02:29:41.911Z,1.74
2023-06-29T02:30:41.380Z,1.74
2023-06-29T02:31:41.503Z,1.77
2023-06-29T02:32:41.634Z,1.70
2023-06-29T02:33:41.680Z,1.73
2023-06-29T02:34:41.835Z,1.73
2023-06-29T02:35:42.150Z,1.75
2023-06-29T02:36:41.952Z,1.73
2023-06-29T02:37:42.054Z,1.75
2023-06-29T02:38:42.131Z,1.71
2023-06-29T02:39:42.229Z,1.72
2023-06-29T02:40:42.326Z,1.77
2023-06-29T02:41:42.434Z,1.74
2023-06-29T02:42:42.526Z,1.78
2023-06-29T02:43:42.609Z,1.68
2023-06-29T02:44:42.707Z,1.74
2023-06-29T02:45:43.014Z,1.70
2023-06-29T02:46:42.904Z,1.69
2023-06-29T02:47:43.009Z,1.71
2023-06-29T02:48:43.052Z,1.73
2023-06-29T02:49:43.145Z,1.73
2023-06-29T02:50:43.245Z,1.72
2023-06-29T02:51:43.379Z,1.72
2023-06-29T02:52:43.438Z,1.72
2023-06-29T02:53:43.542Z,1.71
2023-06-29T02:54:43.627Z,1.72
2023-06-29T02:55:43.918Z,1.73
2023-06-29T02:56:43.815Z,1.68
2023-06-29T02:57:43.920Z,1.71
2023-06-29T02:58:44.006Z,1.69
2023-06-29T02:59:44.106Z,1.72
2023-06-29T03:00:44.251Z,1.70
2023-06-29T03:01:44.298Z,1.66
2023-06-29T03:02:44.448Z,1.69
2023-06-29T03:03:44.510Z,1.71
2023-06-29T03:04:44.584Z,1.70
2023-06-29T03:05:44.933Z,1.70
2023-06-29T03:06:44.798Z,1.71
2023-06-29T03:07:44.883Z,1.70
2023-06-29T03:08:44.992Z,1.70
2023-06-29T03:09:45.090Z,1.64
2023-06-29T03:10:45.221Z,1.67
2023-06-29T03:11:45.320Z,1.70
2023-06-29T03:12:45.409Z,1.66
2023-06-29T03:13:45.513Z,1.67
2023-06-29T03:14:45.605Z,1.69
2023-06-29T03:15:48.419Z,1.64
2023-06-29T03:16:45.766Z,1.70
2023-06-29T03:17:45.879Z,1.72
2023-06-29T03:18:45.883Z,1.69
2023-06-29T03:19:45.930Z,1.67
2023-06-29T03:20:45.973Z,1.69
2023-06-29T03:21:46.058Z,1.67
2023-06-29T03:22:46.102Z,1.69
2023-06-29T03:23:46.166Z,1.67
2023-06-29T03:24:46.213Z,1.68
2023-06-29T03:25:46.615Z,1.68
2023-06-29T03:26:46.319Z,1.67
2023-06-29T03:27:46.384Z,1.66
2023-06-29T03:28:46.435Z,1.69
2023-06-29T03:29:46.490Z,1.65
2023-06-29T03:30:46.555Z,1.66
2023-06-29T03:31:46.585Z,1.66
2023-06-29T03:32:46.674Z,1.67
2023-06-29T03:33:46.698Z,1.65
2023-06-29T03:34:46.780Z,1.67
2023-06-29T03:35:46.974Z,1.65
2023-06-29T03:36:46.881Z,1.65
2023-06-29T03:37:46.935Z,1.63
2023-06-29T03:38:46.983Z,1.64
2023-06-29T03:39:47.117Z,1.65
2023-06-29T03:40:47.106Z,1.63
2023-06-29T03:41:47.153Z,1.63
2023-06-29T03:42:47.206Z,1.65
2023-06-29T03:43:47.254Z,1.63
2023-06-29T03:44:47.326Z,1.63
2023-06-29T03:45:47.370Z,1.64
2023-06-29T03:46:47.469Z,1.63
2023-06-29T03:47:47.528Z,1.62
2023-06-29T03:48:47.596Z,1.63
2023-06-29T03:49:47.587Z,1.63
2023-06-29T03:50:47.712Z,1.61
2023-06-29T03:51:47.697Z,1.63
2023-06-29T03:52:47.752Z,1.64
2023-06-29T03:53:47.804Z,1.62
2023-06-29T03:54:47.861Z,1.62
2023-06-29T03:55:47.902Z,1.64
2023-06-29T03:56:47.960Z,1.63
2023-06-29T03:57:48.010Z,1.62
2023-06-29T03:58:48.104Z,1.62
2023-06-29T03:59:48.121Z,1.62
2023-06-29T04:00:48.936Z,1.62
2023-06-29T04:01:48.316Z,1.62
2023-06-29T04:02:48.412Z,1.61
2023-06-29T04:03:48.524Z,1.62
2023-06-29T04:04:48.605Z,1.61
2023-06-29T04:05:48.736Z,1.63
2023-06-29T04:06:48.917Z,1.62
2023-06-29T04:07:48.955Z,1.64
2023-06-29T04:08:49.060Z,1.61
2023-06-29T04:09:49.222Z,1.64
2023-06-29T04:10:49.294Z,1.59
2023-06-29T04:11:49.396Z,1.62
2023-06-29T04:12:49.531Z,1.62
2023-06-29T04:13:49.642Z,1.60
2023-06-29T04:14:49.736Z,1.59
2023-06-29T04:15:49.845Z,1.62
2023-06-29T04:16:50.006Z,1.60
2023-06-29T04:17:50.128Z,1.62
2023-06-29T04:18:50.243Z,1.61
2023-06-29T04:19:50.280Z,1.59
2023-06-29T04:20:50.401Z,1.62
2023-06-29T04:21:50.570Z,1.57
2023-06-29T04:22:50.617Z,1.62
2023-06-29T04:23:50.745Z,1.60
2023-06-29T04:24:50.845Z,1.59
2023-06-29T04:25:50.964Z,1.58
2023-06-29T04:26:51.085Z,1.59
2023-06-29T04:27:51.214Z,1.60
2023-06-29T04:28:51.324Z,1.57
2023-06-29T04:29:51.441Z,1.55
2023-06-29T04:30:51.582Z,1.58
2023-06-29T04:31:51.681Z,1.56
2023-06-29T04:32:51.909Z,1.61
2023-06-29T04:33:51.931Z,1.58
2023-06-29T04:34:52.944Z,1.57
2023-06-29T04:35:52.169Z,1.59
2023-06-29T04:36:52.307Z,1.56
2023-06-29T04:37:52.413Z,1.59
2023-06-29T04:38:52.522Z,1.57
2023-06-29T04:39:52.651Z,1.57
2023-06-29T04:40:52.774Z,1.57
2023-06-29T04:41:52.899Z,1.60
2023-06-29T04:42:53.026Z,1.57
2023-06-29T04:43:53.147Z,1.58
2023-06-29T04:44:53.253Z,1.57
2023-06-29T04:45:53.394Z,1.56
2023-06-29T04:46:53.506Z,1.56
2023-06-29T04:47:53.627Z,1.57
2023-06-29T04:48:53.822Z,1.55
2023-06-29T04:49:53.879Z,1.54
2023-06-29T04:50:54.061Z,1.55
2023-06-29T04:51:54.098Z,1.54
2023-06-29T04:52:54.217Z,1.55
2023-06-29T04:53:54.334Z,1.55
2023-06-29T04:54:54.959Z,1.53
2023-06-29T04:55:54.566Z,1.57
2023-06-29T04:56:54.675Z,1.54
2023-06-29T04:57:54.818Z,1.55
2023-06-29T04:58:54.912Z,1.54
2023-06-29T04:59:55.019Z,1.53
2023-06-29T05:00:55.196Z,1.52
2023-06-29T05:01:55.471Z,1.56
2023-06-29T05:02:55.408Z,1.54
2023-06-29T05:03:55.501Z,1.52
2023-06-29T05:04:55.599Z,1.53
2023-06-29T05:05:55.732Z,1.53
2023-06-29T05:06:55.831Z,1.51
2023-06-29T05:07:55.929Z,1.51
2023-06-29T05:08:56.031Z,1.51
2023-06-29T05:09:56.155Z,1.51
2023-06-29T05:10:56.267Z,1.50
2023-06-29T05:11:56.369Z,1.51
2023-06-29T05:12:56.478Z,1.52
2023-06-29T05:13:56.643Z,1.52
2023-06-29T05:14:56.707Z,1.48
2023-06-29T05:15:56.828Z,1.51
2023-06-29T05:16:56.956Z,1.50
2023-06-29T05:17:57.125Z,1.50
2023-06-29T05:18:57.179Z,1.53
2023-06-29T05:19:57.307Z,1.56
2023-06-29T05:20:57.447Z,1.52
2023-06-29T05:21:57.549Z,1.56
2023-06-29T05:22:57.675Z,1.55
2023-06-29T05:23:57.822Z,1.55
2023-06-29T05:24:57.921Z,1.57
2023-06-29T05:25:58.133Z,1.64
2023-06-29T05:26:58.174Z,1.67
2023-06-29T05:27:58.351Z,1.71
2023-06-29T05:29:05.666Z,1.81
2023-06-29T05:29:59.535Z,1.82
2023-06-29T05:30:58.633Z,1.84
2023-06-29T05:31:58.780Z,1.89
2023-06-29T05:32:58.830Z,1.99
2023-06-29T05:33:58.884Z,2.16
2023-06-29T05:34:58.978Z,2.32
2023-06-29T05:35:59.979Z,2.44
2023-06-29T05:37:00.149Z,2.58
2023-06-29T05:37:59.205Z,2.69
2023-06-29T05:38:59.274Z,2.78
2023-06-29T05:39:59.345Z,2.96
2023-06-29T05:41:01.876Z,3.12
2023-06-29T05:41:59.456Z,3.42
2023-06-29T05:42:59.540Z,3.57
2023-06-29T05:43:59.569Z,3.73
2023-06-29T05:44:59.620Z,4.03
2023-06-29T05:45:59.709Z,4.18
2023-06-29T05:46:59.723Z,4.59
2023-06-29T05:47:59.800Z,4.73
2023-06-29T05:48:59.827Z,5.05
2023-06-29T05:49:59.880Z,5.31
2023-06-29T05:50:59.934Z,5.92
2023-06-29T05:52:00.045Z,6.39
2023-06-29T05:53:00.039Z,6.65
2023-06-29T05:54:00.067Z,7.12
2023-06-29T05:55:00.132Z,7.38
2023-06-29T05:56:00.166Z,7.96
2023-06-29T05:57:00.286Z,8.23
2023-06-29T05:58:00.354Z,8.59
2023-06-29T05:59:00.988Z,9.12
2023-06-29T06:00:00.351Z,9.58
2023-06-29T06:01:00.427Z,10.03
2023-06-29T06:02:00.472Z,10.36
2023-06-29T06:03:00.607Z,10.99
2023-06-29T06:04:00.789Z,11.38
2023-06-29T06:05:00.637Z,11.38
2023-06-29T06:06:00.667Z,12.47
2023-06-29T06:07:00.738Z,12.94
2023-06-29T06:08:00.754Z,13.40
2023-06-29T06:09:00.864Z,14.08
2023-06-29T06:10:00.850Z,14.66
2023-06-29T06:11:00.900Z,15.08
2023-06-29T06:12:00.952Z,15.82
2023-06-29T06:13:01.000Z,15.98
2023-06-29T06:14:01.026Z,16.52
2023-06-29T06:15:01.156Z,17.68
2023-06-29T06:16:01.134Z,18.31
2023-06-29T06:17:01.181Z,19.88
2023-06-29T06:18:01.250Z,20.85
2023-06-29T06:19:01.997Z,21.47
2023-06-29T06:20:01.341Z,22.43
2023-06-29T06:21:01.388Z,23.80
2023-06-29T06:22:01.411Z,25.94
2023-06-29T06:23:01.464Z,26.11
2023-06-29T06:24:01.506Z,26.72
2023-06-29T06:25:01.579Z,30.21
2023-06-29T06:26:01.700Z,20.12
2023-06-29T06:27:01.810Z,10.90
2023-06-29T06:28:01.899Z,6.11
2023-06-29T06:29:01.960Z,3.64
2023-06-29T06:30:02.081Z,2.46
2023-06-29T06:31:02.235Z,1.79
2023-06-29T06:32:02.366Z,1.28
2023-06-29T06:33:02.598Z,0.95
2023-06-29T06:34:02.561Z,0.80
2023-06-29T06:35:02.690Z,0.67
2023-06-29T06:36:02.809Z,0.56
2023-06-29T06:37:02.968Z,0.51
2023-06-29T06:38:03.098Z,0.50
2023-06-29T06:39:04.036Z,0.51
2023-06-29T06:40:03.397Z,0.50
2023-06-29T06:41:03.541Z,0.50
2023-06-29T06:42:03.687Z,0.50
2023-06-29T06:43:03.847Z,0.51
2023-06-29T06:44:03.969Z,0.50
2023-06-29T06:45:04.112Z,0.50
2023-06-29T06:46:04.288Z,0.50
2023-06-29T06:47:04.549Z,0.51
2023-06-29T06:48:04.647Z,0.50
2023-06-29T06:49:04.710Z,0.52
2023-06-29T06:50:04.876Z,0.51
2023-06-29T06:51:04.981Z,0.51
2023-06-29T06:52:05.133Z,0.50
2023-06-29T06:53:05.299Z,0.52
2023-06-29T06:54:05.457Z,0.51
2023-06-29T06:55:05.629Z,0.52
2023-06-29T06:56:05.776Z,0.51
2023-06-29T06:57:05.949Z,0.51
2023-06-29T06:58:06.092Z,0.53
2023-06-29T06:59:06.234Z,0.58
2023-06-29T07:00:06.537Z,0.57
2023-06-29T07:01:06.559Z,0.57
2023-06-29T07:02:06.661Z,0.59
2023-06-29T07:03:06.840Z,0.60
2023-06-29T07:04:06.876Z,0.58
2023-06-29T07:05:06.911Z,0.54
2023-06-29T07:06:07.031Z,0.57
2023-06-29T07:07:07.164Z,0.64
2023-06-29T07:08:07.275Z,0.57
2023-06-29T07:09:07.462Z,0.53
2023-06-29T07:10:07.512Z,0.51
2023-06-29T07:11:07.588Z,0.53
2023-06-29T07:12:07.706Z,0.54
2023-06-29T07:13:07.869Z,0.51
2023-06-29T07:14:08.005Z,0.50
2023-06-29T07:15:08.014Z,0.53
2023-06-29T07:16:08.152Z,0.51
2023-06-29T07:17:08.377Z,0.53
2023-06-29T07:18:08.451Z,0.60
2023-06-29T07:24:08.932Z,0.74
2023-06-29T07:25:08.976Z,0.78
2023-06-29T07:26:09.044Z,0.86
2023-06-29T07:27:09.119Z,1.01
2023-06-29T07:28:09.234Z,1.26
2023-06-29T07:29:09.261Z,1.31
2023-06-29T07:30:09.953Z,1.38
2023-06-29T07:31:09.410Z,1.41
2023-06-29T07:32:09.599Z,1.39
2023-06-29T07:33:09.557Z,1.46
2023-06-29T07:34:09.592Z,1.53
2023-06-29T07:35:09.634Z,1.57
2023-06-29T07:36:09.706Z,1.58
2023-06-29T07:37:09.771Z,1.58
2023-06-29T07:38:09.913Z,1.62
2023-06-29T07:39:09.904Z,1.60
2023-06-29T07:40:09.957Z,1.71
2023-06-29T07:41:10.113Z,1.73
2023-06-29T07:42:10.095Z,1.80
2023-06-29T07:43:10.140Z,1.80
2023-06-29T07:44:10.195Z,1.84
2023-06-29T07:45:10.265Z,1.83
2023-06-29T07:46:11.000Z,1.89
2023-06-29T07:47:10.480Z,1.87
2023-06-29T07:48:10.626Z,1.92
2023-06-29T07:49:11.034Z,1.99
2023-06-29T07:50:10.559Z,2.03
2023-06-29T07:51:10.622Z,2.04
2023-06-29T07:52:11.464Z,2.09
2023-06-29T07:53:10.795Z,2.09
2023-06-29T07:54:10.803Z,2.13
2023-06-29T07:55:10.891Z,2.18
2023-06-29T07:56:10.928Z,2.19
2023-06-29T07:59:11.116Z,2.23
2023-06-29T08:00:11.165Z,2.24
2023-06-29T08:01:11.265Z,2.26
2023-06-29T08:02:11.452Z,2.29
2023-06-29T08:03:11.429Z,2.33
2023-06-29T08:04:11.772Z,2.38
2023-06-29T08:07:11.699Z,2.43
2023-06-29T08:08:12.012Z,2.42
2023-06-29T08:09:11.737Z,2.30
2023-06-29T08:10:11.800Z,2.17
2023-06-29T08:11:11.858Z,2.16
2023-06-29T08:12:11.929Z,2.27
2023-06-29T08:13:11.967Z,2.25
2023-06-29T08:14:12.052Z,2.21
2023-06-29T08:15:12.188Z,2.26
2023-06-29T08:16:12.187Z,1.96
2023-06-29T08:17:13.978Z,1.84
2023-06-29T08:18:12.294Z,1.72
2023-06-29T08:19:12.439Z,1.74
2023-06-29T08:20:12.511Z,1.60
2023-06-29T08:21:12.494Z,1.70
2023-06-29T08:22:12.572Z,1.58
2023-06-29T08:23:14.166Z,1.54
2023-06-29T08:24:12.981Z,1.91
2023-06-29T08:25:12.836Z,1.97
2023-06-29T08:26:12.859Z,2.17
2023-06-29T08:27:12.922Z,2.48
2023-06-29T08:28:12.981Z,2.48
2023-06-29T08:29:13.047Z,2.66
2023-06-29T08:30:13.112Z,2.89
2023-06-29T08:31:13.190Z,3.14
2023-06-29T08:32:13.309Z,3.64
2023-06-29T08:33:13.450Z,4.01
2023-06-29T08:34:17.069Z,4.35
2023-06-29T08:35:13.428Z,4.90
2023-06-29T08:36:13.553Z,5.39
2023-06-29T08:37:13.522Z,5.88
2023-06-29T08:38:13.593Z,6.42
2023-06-29T08:39:13.631Z,7.15
2023-06-29T08:40:13.684Z,7.79
2023-06-29T08:41:14.566Z,8.59
2023-06-29T08:42:13.768Z,9.47
2023-06-29T08:43:13.812Z,10.01
2023-06-29T08:44:13.941Z,11.01
2023-06-29T08:45:13.900Z,12.04
2023-06-29T08:46:14.608Z,13.06
2023-06-29T08:47:14.000Z,14.07
2023-06-29T08:48:14.118Z,15.72
2023-06-29T08:49:14.097Z,16.73
2023-06-29T08:50:14.144Z,18.41
2023-06-29T08:51:14.178Z,20.08
2023-06-29T08:52:14.222Z,21.33
2023-06-29T08:53:14.324Z,23.54
2023-06-29T08:54:14.573Z,25.27
2023-06-29T08:55:14.341Z,27.40
2023-06-29T08:56:14.387Z,29.48
2023-06-29T08:57:14.428Z,31.36
2023-06-29T08:58:14.490Z,33.20
2023-06-29T08:59:14.510Z,34.62
2023-06-29T09:00:14.563Z,37.33
2023-06-29T09:01:14.726Z,38.31
2023-06-29T09:02:14.683Z,41.13
2023-06-29T09:03:15.228Z,43.48
2023-06-29T09:04:14.813Z,46.35
2023-06-29T09:05:14.791Z,48.53
2023-06-29T09:06:14.835Z,51.02
2023-06-29T09:07:14.891Z,55.67
2023-06-29T09:08:15.016Z,55.76
2023-06-29T09:09:14.997Z,58.84
2023-06-29T09:10:15.071Z,61.17
2023-06-29T09:11:15.182Z,64.60
2023-06-29T09:12:15.261Z,66.41
2023-06-29T09:13:15.364Z,68.38
2023-06-29T09:14:16.073Z,72.32
2023-06-29T09:15:15.584Z,72.58
2023-06-29T09:16:15.678Z,83.97
2023-06-29T09:17:15.752Z,92.71
2023-06-29T09:18:15.861Z,91.37
2023-06-29T09:19:16.035Z,58.83
2023-06-29T09:20:16.083Z,48.02
2023-06-29T09:21:16.157Z,35.94
2023-06-29T09:22:16.233Z,34.81
2023-06-29T09:23:16.295Z,36.05
2023-06-29T09:24:16.350Z,36.65
2023-06-29T09:25:28.449Z,35.29
2023-06-29T09:26:17.461Z,35.33
2023-06-29T09:27:16.479Z,35.64
2023-06-29T09:28:16.519Z,35.72
2023-06-29T09:29:16.550Z,35.64
2023-06-29T09:30:16.591Z,33.03
2023-06-29T09:31:16.756Z,33.51
2023-06-29T09:32:16.684Z,32.24
2023-06-29T09:33:16.749Z,32.82
2023-06-29T09:34:16.777Z,32.70
2023-06-29T09:35:16.900Z,33.98
2023-06-29T09:36:17.020Z,33.87
2023-06-29T09:37:17.182Z,33.48
2023-06-29T09:38:17.194Z,36.82
2023-06-29T09:39:17.306Z,36.33
2023-06-29T09:40:17.391Z,38.10
2023-06-29T09:41:17.472Z,38.91
2023-06-29T09:42:17.587Z,39.25
2023-06-29T09:43:17.664Z,39.10
2023-06-29T09:44:17.764Z,40.97
2023-06-29T09:45:17.853Z,43.01
2023-06-29T09:46:18.603Z,43.43
2023-06-29T09:49:18.206Z,49.67
2023-06-29T09:50:18.249Z,50.23
2023-06-29T09:51:19.216Z,51.14
2023-06-29T09:52:18.269Z,54.15
2023-06-29T09:53:18.305Z,59.09
2023-06-29T09:54:18.275Z,65.95
2023-06-29T09:55:18.307Z,64.96
2023-06-29T09:56:18.353Z,77.44
2023-06-29T09:57:18.380Z,97.95
2023-06-29T09:58:18.417Z,116.83
2023-06-29T09:59:18.440Z,126.70
2023-06-29T10:00:18.533Z,131.76
2023-06-29T10:01:18.550Z,116.12
2023-06-29T10:02:18.567Z,111.42
2023-06-29T10:03:18.694Z,110.22
2023-06-29T10:04:18.667Z,108.38
2023-06-29T10:05:18.672Z,110.78
2023-06-29T10:06:18.703Z,122.35
2023-06-29T10:07:18.880Z,115.78
2023-06-29T10:08:18.800Z,116.38
2023-06-29T10:09:18.837Z,113.79
2023-06-29T10:10:18.921Z,110.65
2023-06-29T10:11:18.926Z,116.47
2023-06-29T10:12:18.943Z,119.06
2023-06-29T10:13:18.977Z,111.94
2023-06-29T10:14:19.020Z,113.44
2023-06-29T10:15:19.050Z,106.51
2023-06-29T10:16:19.140Z,105.35
2023-06-29T10:17:19.313Z,106.27
2023-06-29T10:18:19.431Z,103.47
2023-06-29T10:19:19.498Z,104.04
2023-06-29T10:20:19.733Z,109.27
2023-06-29T10:21:19.779Z,105.16
2023-06-29T10:22:19.754Z,103.13
2023-06-29T10:23:21.170Z,104.72
2023-06-29T10:24:20.012Z,101.97
2023-06-29T10:25:20.068Z,100.91
2023-06-29T10:26:20.166Z,98.94
2023-06-29T10:27:20.299Z,100.41
2023-06-29T10:28:20.402Z,99.58
2023-06-29T10:29:20.451Z,101.86
2023-06-29T10:30:20.559Z,98.05
2023-06-29T10:31:20.842Z,99.00
2023-06-29T10:32:20.760Z,98.17
2023-06-29T10:33:20.882Z,95.14
2023-06-29T10:34:21.004Z,91.43
2023-06-29T10:35:21.067Z,91.94
2023-06-29T10:36:21.221Z,90.62
2023-06-29T10:37:21.232Z,93.55
2023-06-29T10:38:21.311Z,93.90
2023-06-29T10:39:21.411Z,93.22
2023-06-29T10:40:21.495Z,84.42
2023-06-29T10:41:21.559Z,86.92
2023-06-29T10:42:21.708Z,86.14
2023-06-29T10:43:21.721Z,90.09
2023-06-29T10:44:21.819Z,84.77
2023-06-29T10:45:21.917Z,84.84
2023-06-29T10:46:22.063Z,89.07
2023-06-29T10:47:22.099Z,88.77
2023-06-29T10:48:34.250Z,83.58
2023-06-29T10:49:23.262Z,83.69
2023-06-29T10:50:22.257Z,83.78
2023-06-29T10:51:22.307Z,78.73
2023-06-29T10:52:22.404Z,82.17
2023-06-29T10:53:22.390Z,83.17
2023-06-29T10:54:22.475Z,80.76
2023-06-29T10:55:22.471Z,80.97
2023-06-29T10:56:22.508Z,76.72
2023-06-29T10:57:25.124Z,81.53
2023-06-29T10:58:22.804Z,79.24
2023-06-29T10:59:22.924Z,77.38
2023-06-29T11:00:22.987Z,77.90
2023-06-29T11:01:23.656Z,77.65
2023-06-29T11:02:23.176Z,78.33
2023-06-29T11:03:24.084Z,73.92
2023-06-29T11:04:23.497Z,75.31
2023-06-29T11:05:23.451Z,76.14
2023-06-29T11:07:24.618Z,74.61
2023-06-29T11:08:23.631Z,75.13
2023-06-29T11:09:23.696Z,75.26
2023-06-29T11:10:23.767Z,73.83
2023-06-29T11:11:23.753Z,74.52
2023-06-29T11:12:23.794Z,73.29
2023-06-29T11:13:23.876Z,72.29
2023-06-29T11:14:23.877Z,70.71
2023-06-29T11:15:23.938Z,73.72
2023-06-29T11:16:23.988Z,72.31
2023-06-29T11:17:24.018Z,68.93
2023-06-29T11:18:24.046Z,68.11
2023-06-29T11:19:24.079Z,68.85
2023-06-29T11:20:24.189Z,68.01
2023-06-29T11:21:24.293Z,69.24
2023-06-29T11:22:24.369Z,67.69
2023-06-29T11:23:24.451Z,67.21
2023-06-29T11:24:24.517Z,67.95
2023-06-29T11:25:24.597Z,66.01
2023-06-29T11:26:24.667Z,62.50
2023-06-29T11:27:24.741Z,62.27
2023-06-29T11:28:24.805Z,65.17
2023-06-29T11:29:24.953Z,65.20
2023-06-29T11:30:24.999Z,62.99
2023-06-29T11:31:25.124Z,61.07
2023-06-29T11:32:25.221Z,62.18
2023-06-29T11:33:34.288Z,61.15
2023-06-29T11:34:26.293Z,61.30
2023-06-29T11:35:25.363Z,61.39
2023-06-29T11:36:25.376Z,61.93
2023-06-29T11:37:25.420Z,61.98
2023-06-29T11:38:25.545Z,58.52
2023-06-29T11:39:25.505Z,59.33
2023-06-29T11:40:25.544Z,59.81
2023-06-29T11:41:25.586Z,56.77
2023-06-29T11:42:25.767Z,58.56
2023-06-29T11:44:25.913Z,56.75
2023-06-29T11:45:26.087Z,57.32
2023-06-29T11:46:26.173Z,57.72
2023-06-29T11:47:33.256Z,55.17
2023-06-29T11:48:27.291Z,55.25
2023-06-29T11:49:26.329Z,55.67
2023-06-29T11:50:26.400Z,55.47
2023-06-29T11:51:26.433Z,55.30
2023-06-29T11:52:26.463Z,54.78
2023-06-29T11:53:26.536Z,53.65
2023-06-29T11:54:26.549Z,54.20
2023-06-29T11:55:26.598Z,53.19
2023-06-29T11:56:26.654Z,52.13
2023-06-29T11:57:26.748Z,52.24
2023-06-29T11:58:26.845Z,53.37
2023-06-29T11:59:27.005Z,49.89
2023-06-29T12:00:27.066Z,50.87
2023-06-29T12:02:27.330Z,49.63
2023-06-29T12:03:27.512Z,50.59
2023-06-29T12:04:27.654Z,51.71
2023-06-29T12:05:27.580Z,50.40
2023-06-29T12:06:27.690Z,48.58
2023-06-29T12:07:27.925Z,48.36
2023-06-29T12:08:27.980Z,48.52
2023-06-29T12:09:27.987Z,47.99
2023-06-29T12:10:28.708Z,49.01
2023-06-29T12:11:28.203Z,45.69
2023-06-29T12:12:28.301Z,45.45
2023-06-29T12:13:28.415Z,46.39
2023-06-29T12:14:28.573Z,47.96
2023-06-29T12:15:28.629Z,45.09
2023-06-29T12:18:28.906Z,46.14
2023-06-29T12:19:29.071Z,45.87
2023-06-29T12:20:29.748Z,44.90
2023-06-29T12:21:29.302Z,45.95
2023-06-29T12:22:29.017Z,46.40
2023-06-29T12:23:29.069Z,44.39
2023-06-29T12:24:29.906Z,43.65
2023-06-29T12:25:29.150Z,43.63
2023-06-29T12:26:29.166Z,44.93
2023-06-29T12:27:29.277Z,43.54
2023-06-29T12:28:29.269Z,42.67
2023-06-29T12:29:29.317Z,42.39
2023-06-29T12:30:29.394Z,40.27
2023-06-29T12:31:29.600Z,41.99
2023-06-29T12:32:29.643Z,42.29
2023-06-29T12:33:29.727Z,41.07
2023-06-29T12:34:29.842Z,41.04
2023-06-29T12:35:29.933Z,40.89
2023-06-29T12:36:30.029Z,41.72
2023-06-29T12:37:30.125Z,39.76
2023-06-29T12:38:30.219Z,41.14
2023-06-29T12:39:30.336Z,39.86
2023-06-29T12:40:32.122Z,41.60
2023-06-29T12:41:30.457Z,37.90
2023-06-29T12:42:30.509Z,38.52
2023-06-29T12:43:30.552Z,38.24
2023-06-29T12:44:30.612Z,38.35
2023-06-29T12:45:30.636Z,37.68
2023-06-29T12:46:33.429Z,37.02
2023-06-29T12:47:30.840Z,37.14
2023-06-29T12:48:30.855Z,37.40
2023-06-29T12:49:31.690Z,37.04
2023-06-29T12:50:30.851Z,36.54
2023-06-29T12:51:30.894Z,38.36
2023-06-29T12:52:30.913Z,36.05
2023-06-29T12:53:30.961Z,37.83
2023-06-29T12:54:31.057Z,35.91
2023-06-29T12:55:31.032Z,36.27
2023-06-29T12:56:31.068Z,34.24
2023-06-29T12:57:31.114Z,34.63
2023-06-29T12:58:32.254Z,34.12
2023-06-29T12:59:31.192Z,34.17
2023-06-29T13:00:31.223Z,34.15
2023-06-29T13:01:31.399Z,34.18
2023-06-29T13:02:31.489Z,33.85
2023-06-29T13:03:31.512Z,34.51
2023-06-29T13:04:34.020Z,33.84
2023-06-29T13:05:31.410Z,33.92
2023-06-29T13:06:31.463Z,33.32
2023-06-29T13:07:31.483Z,34.15
2023-06-29T13:08:31.610Z,32.19
2023-06-29T13:09:31.564Z,32.36
2023-06-29T13:10:33.507Z,31.54
2023-06-29T13:11:31.647Z,31.60
2023-06-29T13:12:31.673Z,31.67
2023-06-29T13:13:31.709Z,31.81
2023-06-29T13:14:31.732Z,31.48
2023-06-29T13:15:32.605Z,32.45
2023-06-29T13:16:34.890Z,30.89
2023-06-29T13:17:31.817Z,30.92
2023-06-29T13:18:31.905Z,30.91
2023-06-29T13:19:32.197Z,30.27
2023-06-29T13:20:31.910Z,30.89
2023-06-29T13:21:32.013Z,30.16
2023-06-29T13:22:33.845Z,29.35
2023-06-29T13:23:32.050Z,29.39
2023-06-29T13:24:32.035Z,29.68